AirNav   Air Wisconsin pilot careers
 
 483 users online  

3D1 Crivitz Municipal Airport
Crivitz, Wisconsin, USA

GOING TO CRIVITZ?


FAA INFORMATION EFFECTIVE 29 MARCH 2018

Location

FAA Identifier: 3D1
Lat/Long: 45-12-51.8000N / 088-04-25.6000W
45-12.863333N / 088-04.426667W
45.2143889 / -88.0737778
(estimated)
Elevation: 735 ft. / 224.0 m (surveyed)
Variation: 02W (1985)
From city: 3 miles SW of CRIVITZ, WI
Time zone: UTC -5 (UTC -6 during Standard Time)
Zip code: 54114

Airport Operations

Airport use: Open to the public
Activation date: 04/1948
Control tower: no
ARTCC: MINNEAPOLIS CENTER
FSS: GREEN BAY FLIGHT SERVICE STATION
NOTAMs facility: GRB (NOTAM-D service available)
Attendance: UNATNDD
Wind indicator: yes
Segmented circle: yes
Lights: ACTIVATE LIRL RWY 18-36 - 123.0.
Beacon: white-green (lighted land airport)
ROTG BCN - 5 CLICKS ON 123.0.

Airport Communications

CTAF/UNICOM: 122.8
WX AWOS-3PT at MNM (19 nm E): 109.6 (906-863-8801)

Nearby radio navigation aids

VOR radial/distance  VOR name  Freq  Var
MNMr276/18.2MENOMINEE VOR/DME109.6000E
IMTr179/36.1IRON MOUNTAIN VOR/DME111.2002W
GRBr006/39.9GREEN BAY VORTAC115.5001E

Airport Services

Parking: tiedowns
Airframe service: NONE
Powerplant service: NONE
Bottled oxygen: NONE
Bulk oxygen: NONE

Runway Information

Runway 18/36

Dimensions: 2620 x 60 ft. / 799 x 18 m
Surface: asphalt, in fair condition
Weight bearing capacity: 
Single wheel: 12.0
Runway edge lights: low intensity
Runway edge markings: RY 18/36 MARKINGS BADLY FADED
RUNWAY 18  RUNWAY 36
Latitude: 45-13.063333N45-12.632198N
Longitude: 088-04.372833W088-04.372833W
Elevation: 731.0 ft.
Gradient: 0.1%0.1%
Traffic pattern: leftleft
Markings: basic, in poor conditionbasic, in poor condition
Runway end identifier lights: nono
Obstructions: 16 ft. road, 200 ft. from runway
RWY 18 +3 FT' BERM AT THRESHOLD & ROAD 5 FT L & R OF CNTRLN.
16 ft. road, 210 ft. from runway
RWY 36 +3 FT BERM AT THRESHOLD & ROAD 5 FT L & R OF CNTRLN.

Runway 9/27

Dimensions: 1270 x 80 ft. / 387 x 24 m
Surface: turf, in fair condition
Runway edge markings: RWY 09 /27 MKD WITH YELLOW CONES.
RUNWAY 9  RUNWAY 27
Latitude: 45-12.899428N45-12.893212N
Longitude: 088-04.683780W088-04.388158W
Elevation: 735.0 ft.731.0 ft.
Traffic pattern: leftleft
Runway heading: 094 magnetic, 092 true274 magnetic, 272 true
Runway end identifier lights: nono
Obstructions: 25 ft. pline, marked, 20 ft. from runway, 1:1 slope to clear
APCH RATIO 13:1 TO DSPLCD THLD.
13 ft. trees, 65 ft. from runway, 30 ft. right of centerline, 5:1 slope to clear
APCH RATIO 15:1 TO DSPLCD THLD.

Airport Ownership and Management from official FAA records

Ownership: Publicly-owned
Owner: TOWN OF STEPHENSON
W9484 COUNTY ROAD X
CRIVITZ, WI 54114
Phone 715-854-2874
Manager: JIM STRADAL
W9484 COUNTY ROAD X
CRIVITZ, WI 54114
Phone (715) 927-2793

Airport Operational Statistics

Aircraft based on the field: 2
Ultralights: 2
    
Aircraft operations: avg 50/month *
83% local general aviation
17% transient general aviation
* for 12-month period ending 27 September 2017

Additional Remarks

RY 09/27 NOT PLOWED. CONFIRM SNOW REMOVAL FOR RY 18/36 WITH AMGR 715-927-2793.
DEER ON & INVOF ARPT.

Instrument Procedures

There are no published instrument procedures at 3D1.

Some nearby airports with instrument procedures:

KMNM - Menominee-Marinette Twin County Airport (19 nm E)
KOCQ - Oconto-J Douglas Bake Municipal Airport (22 nm S)
KEZS - Shawano Municipal Airport (33 nm SW)
KSUE - Door County Cherryland Airport (35 nm SE)
KIMT - Ford Airport (36 nm N)
 
Loc | Ops | Rwys | IFR | FBO | Links
Com | Nav | Svcs | Stats | Notes

AirNav Hotels Sweepstakes
 
Area around 3D1 (Crivitz Municipal Airport)
 
Road maps at: MapQuest Bing Google
 
Aerial photo
WARNING: Photo may not be current or correct
Aerial photo of 3D1 (Crivitz Municipal Airport)
Taken mid October 2005

Do you have a better or more recent aerial photo of Crivitz Municipal Airport that you would like to share? If so, please send us your photo.

 
Sectional chart

 
Airport distance calculator
Flying to Crivitz Municipal Airport? Find the distance to fly.

From to 3D1

Sunrise and sunset
Times for 23-Apr-2018
 Local
(UTC-5)
 Zulu
(UTC)
Morning civil twilight05:2310:23
Sunrise05:5510:55
Sunset19:4700:47
Evening civil twilight20:1801:18

Current date and time
Zulu (UTC)  23-Apr-2018 10:49:27
Local (UTC-5)  23-Apr-2018 05:49:27
 
METAR
KMNM 
20nm E 
230956Z AUTO 00000KT 10SM CLR M01/M03 A3030 RMK AO2 SLP285 T10111033 FZRANO $
KOCQ 
22nm S 
231035Z AUTO 00000KT 10SM CLR M03/M04 A3030 RMK AO1 T10271036
KEZS 
33nm SW 
231035Z AUTO 00000KT 10SM CLR M01/M03 A3029 RMK AO2 T10121031
KSUE 
35nm SE 
230956Z AUTO 10005KT 10SM CLR 04/M08 A3030 RMK AO2 SLP285 T00441078
KIMT 
36nm N 
230954Z AUTO 00000KT 10SM CLR M03/M07 A3027 RMK AO2 SLP260 T10331067 $
K3D2 
38nm E 
231035Z AUTO 12003KT 10SM CLR 04/M08 A3029 RMK AO2 T00391077
TAF
KGRB 
44nm S 
230520Z 2306/2406 VRB03KT P6SM FEW250 FM231400 07005KT P6SM SCT200
NOTAMs
Click for the latest NOTAMs
NOTAMs are issued by the DoD/FAA and will open in a separate window not controlled by AirNav.

 

 
 

Would you like to see your business listed on this page?

 If your business provides an interesting product or service to pilots, flight crews, aircraft, or users of the Crivitz Municipal Airport, you should consider listing it here.  To start the listing process, click on the button below
 
Add a business
 

Other Pages about Crivitz Municipal Airport

Page from the Wisconsin airport directory (PDF)
 
Update a link
 
Copyright © AirNav, LLC. All rights reserved. Privacy Policy  Contact